Sulphur, Indiana
Current Conditions -  °F | °C
As of 9:55 PM on Sunday 23 Nov 2014 (Local Time) from KHNB Reporting Station
Overcast Overcast  
Wind Chill: 57°   Ceiling: 1700
Heat Index: 57°   Visibility: 5mi
Dew Point: 54°   Wind: 17mph
Humidity: 88%   Direction: 190°S
Pressure: 29.26"   Gusts: 24mph
Location:  38.23°N, 86.47°W
Report Text: KHNB 240255Z AUTO 19015G21KT 5SM SCT011 OVC017 14/12 A2926 RMK AO1 P0012 60018 57024
Loading
Personal Weather Stations






























Interactive Weather Map New forecast layout! Learn more

10-Day Weather Forecast

Advertisements
Track Severe Weather on mobile